Time;durP1;ratioP1;P1;durP2;ratioP2;P2;SDS_P1;SDS_P2;PMS_P1;PMS_P2;Temp;Humidity;BMP_temperature;BMP_pressure;BME280_temperature;BME280_humidity;BME280_pressure;Samples;Min_cycle;Max_cycle;Signal;HPM_P1;HPM_P2
2022/02/15 00:01:16;;;;;;;12.63;1.85;;;7.90;99.90;;;8.75;83.12;99548.09;5058839;28;20468;-76
2022/02/15 00:03:41;;;;;;;6.07;1.95;;;7.90;99.90;;;8.73;83.39;99544.88;5041447;28;20029;-77
2022/02/15 00:06:07;;;;;;;10.63;2.20;;;7.90;99.90;;;8.73;83.70;99538.53;5040149;28;20029;-76
2022/02/15 00:08:33;;;;;;;11.07;2.47;;;7.90;99.90;;;8.72;83.91;99539.69;5057327;28;20033;-78
2022/02/15 00:10:59;;;;;;;8.95;2.05;;;7.90;99.90;;;8.66;83.98;99543.97;5056309;28;20021;-75
2022/02/15 00:13:25;;;;;;;6.45;2.03;;;7.90;99.90;;;8.62;84.31;99541.13;5054557;28;20554;-75
2022/02/15 00:15:51;;;;;;;10.50;2.35;;;7.80;99.90;;;8.66;84.29;99549.53;5054688;28;20056;-75
2022/02/15 00:18:17;;;;;;;6.57;2.20;;;7.80;99.90;;;8.68;84.38;99544.38;5057015;28;20029;-77
2022/02/15 00:20:46;;;;;;;6.03;2.03;;;7.80;99.90;;;8.53;84.91;99545.31;5057160;28;20036;-76
2022/02/15 00:23:12;;;;;;;7.38;2.08;;;7.70;99.90;;;8.51;85.10;99540.13;5038223;28;20029;-78
2022/02/15 00:25:38;;;;;;;6.65;2.35;;;7.70;99.90;;;8.43;85.71;99546.75;5038832;28;20033;-76
2022/02/15 00:28:05;;;;;;;6.15;2.10;;;7.70;99.90;;;8.39;85.99;99541.13;5056924;28;20021;-75
2022/02/15 00:30:32;;;;;;;5.03;1.88;;;7.60;99.90;;;8.38;86.35;99539.50;5056584;28;20066;-76
2022/02/15 00:32:58;;;;;;;7.18;1.88;;;7.60;99.90;;;8.42;86.04;99545.94;5037735;28;20037;-76
2022/02/15 00:35:24;;;;;;;9.68;2.63;;;7.60;99.90;;;8.42;86.11;99547.91;5056568;28;20411;-77
2022/02/15 00:37:50;;;;;;;6.97;2.30;;;7.60;99.90;;;8.48;85.96;99551.22;5057121;28;20025;-77
2022/02/15 00:40:16;;;;;;;6.80;2.00;;;7.60;99.90;;;8.48;86.05;99554.00;5039484;28;20095;-76
2022/02/15 00:42:42;;;;;;;9.15;2.08;;;7.60;99.90;;;8.41;86.34;99554.66;5057280;28;20028;-76
2022/02/15 00:45:09;;;;;;;5.70;2.17;;;7.60;99.90;;;8.35;86.97;99558.91;5055827;28;20049;-76
2022/02/15 00:47:44;;;;;;;10.23;2.33;;;7.60;99.90;;;8.42;86.79;99570.97;5038118;28;20021;-75
2022/02/15 00:50:16;;;;;;;9.75;2.15;;;7.60;99.90;;;8.32;87.18;99568.00;5050048;28;20028;-77
2022/02/15 00:52:43;;;;;;;6.70;2.50;;;7.60;99.90;;;8.31;87.60;99567.22;5057695;28;20111;-77
2022/02/15 00:55:13;;;;;;;4.82;2.25;;;7.50;99.90;;;8.26;87.56;99570.25;5059388;28;20035;-78
2022/02/15 00:57:42;;;;;;;5.60;2.40;;;7.50;99.90;;;8.22;88.00;99569.38;5058946;28;20027;-75
2022/02/15 01:00:13;;;;;;;11.68;2.45;;;7.40;99.90;;;8.23;88.26;99564.63;5076290;28;20046;-75
2022/02/15 01:02:40;;;;;;;7.18;2.53;;;7.40;99.90;;;8.16;88.79;99570.84;5059106;28;20028;-78
2022/02/15 01:09:05;;;;;;;7.35;2.63;;;7.30;99.90;;;8.02;89.45;99567.00;5080181;28;20634;-77
2022/02/15 01:11:31;;;;;;;7.38;2.15;;;7.20;99.90;;;7.86;91.03;99572.63;5063099;28;20071;-78
2022/02/15 01:13:57;;;;;;;11.05;2.67;;;7.10;99.90;;;7.93;90.81;99579.13;5074352;28;20094;-74
2022/02/15 01:16:23;;;;;;;7.65;2.42;;;7.10;99.90;;;7.89;91.11;99580.25;5073623;28;20028;-78
2022/02/15 01:18:49;;;;;;;8.73;2.55;;;7.00;99.90;;;7.94;91.14;99574.38;5075821;28;20060;-77
2022/02/15 01:21:18;;;;;;;6.22;2.50;;;7.10;99.90;;;7.95;91.12;99579.59;5076264;28;20042;-76
2022/02/15 01:23:50;;;;;;;10.20;2.92;;;7.10;99.90;;;7.97;91.27;99582.00;5075919;28;20032;-76
2022/02/15 01:26:16;;;;;;;8.90;2.35;;;7.10;99.90;;;7.91;91.69;99581.47;5076388;28;20329;-76
2022/02/15 01:28:42;;;;;;;9.07;2.58;;;7.10;99.90;;;7.96;91.60;99585.97;5080937;28;20032;-76
2022/02/15 01:31:09;;;;;;;11.20;2.53;;;7.10;99.90;;;8.01;91.24;99585.66;5061030;28;20517;-77
2022/02/15 01:33:35;;;;;;;11.77;2.42;;;7.10;99.90;;;7.96;91.20;99577.63;5059015;28;20035;-77
2022/02/15 01:36:01;;;;;;;10.05;2.50;;;7.20;99.90;;;8.03;91.30;99590.84;5075530;28;20036;-78
2022/02/15 01:38:28;;;;;;;7.82;2.58;;;7.20;99.90;;;8.07;91.27;99588.94;5056948;28;20025;-76
2022/02/15 01:40:54;;;;;;;10.32;3.10;;;7.20;99.90;;;8.06;91.26;99604.03;5076214;28;20028;-77
2022/02/15 01:43:21;;;;;;;9.65;3.05;;;7.20;99.90;;;8.04;91.41;99598.00;5075914;28;20024;-78
2022/02/15 01:45:47;;;;;;;7.80;3.00;;;7.20;99.90;;;7.95;91.78;99593.50;5075486;28;20369;-76
2022/02/15 01:48:13;;;;;;;8.10;2.90;;;7.20;99.90;;;7.92;91.33;99598.97;5075935;28;20035;-74
2022/02/15 01:50:42;;;;;;;15.57;3.90;;;7.10;99.90;;;7.82;92.22;99600.38;5057823;28;20082;-77
2022/02/15 01:53:11;;;;;;;6.93;2.85;;;7.00;99.90;;;7.78;92.54;99593.91;5056242;28;20036;-77
2022/02/15 01:55:37;;;;;;;9.20;3.03;;;7.00;99.90;;;7.72;92.74;99592.59;5055776;28;20059;-77
2022/02/15 01:58:04;;;;;;;6.90;3.60;;;6.90;99.90;;;7.68;93.32;99597.25;5055064;28;20041;-76
2022/02/15 02:00:33;;;;;;;8.80;4.38;;;6.80;99.90;;;7.65;93.63;99598.00;5055034;28;20071;-77
2022/02/15 02:02:59;;;;;;;12.43;4.13;;;6.80;99.90;;;7.61;94.42;99591.53;5053025;28;20498;-76
2022/02/15 02:08:12;;;;;;;9.50;4.30;;;6.80;99.90;;;7.70;94.27;99608.03;5055517;28;20499;-75
2022/02/15 02:10:38;;;;;;;11.30;4.38;;;6.80;99.90;;;7.77;93.71;99605.41;5055470;28;20033;-78
2022/02/15 02:13:04;;;;;;;9.70;4.68;;;6.90;99.90;;;7.77;93.88;99614.53;5055055;28;20484;-79
2022/02/15 02:15:33;;;;;;;16.15;5.15;;;6.90;99.90;;;7.77;94.40;99611.75;5055279;28;20033;-78
2022/02/15 02:18:02;;;;;;;13.35;4.35;;;6.90;99.90;;;7.78;94.07;99621.72;5037881;28;20036;-79
2022/02/15 02:20:28;;;;;;;12.00;4.60;;;6.90;99.90;;;7.82;93.98;99616.22;5055074;28;20024;-78
2022/02/15 02:22:54;;;;;;;8.85;4.13;;;7.00;99.90;;;7.83;93.85;99618.63;5055083;28;20065;-76
2022/02/15 02:25:22;;;;;;;8.52;3.85;;;7.00;99.90;;;7.87;93.67;99615.94;5055292;28;20503;-79
2022/02/15 02:27:51;;;;;;;11.48;4.32;;;7.00;99.90;;;7.84;93.90;99616.66;5055778;28;20044;-79
2022/02/15 02:30:19;;;;;;;11.88;3.42;;;7.00;99.90;;;7.85;94.05;99624.66;5055274;28;20025;-79
2022/02/15 02:32:45;;;;;;;9.45;3.70;;;7.00;99.90;;;7.91;93.52;99620.41;5057155;28;20337;-78
2022/02/15 02:35:12;;;;;;;9.45;4.35;;;7.00;99.90;;;7.87;93.93;99611.19;5056317;28;20044;-78
2022/02/15 02:37:38;;;;;;;12.73;3.75;;;7.00;99.90;;;7.95;93.46;99615.72;5054880;28;20083;-77
2022/02/15 02:40:12;;;;;;;8.15;3.80;;;7.00;99.90;;;7.87;94.34;99618.72;5055359;28;20115;-77
2022/02/15 02:42:40;;;;;;;10.77;4.10;;;7.00;99.90;;;7.94;93.83;99629.97;5054981;28;20100;-76
2022/02/15 02:45:18;;;;;;;10.82;3.47;;;7.00;99.90;;;7.92;93.87;99630.38;5035800;28;20029;-77
2022/02/15 02:47:48;;;;;;;12.35;4.60;;;7.00;99.90;;;7.82;94.67;99639.28;5053908;28;20441;-76
2022/02/15 02:50:18;;;;;;;11.18;4.32;;;7.00;99.90;;;7.84;94.77;99636.94;5067369;28;20028;-77
2022/02/15 02:52:45;;;;;;;11.82;4.75;;;7.00;99.90;;;7.86;94.87;99636.56;5074589;28;20032;-76
2022/02/15 02:55:12;;;;;;;12.95;5.00;;;7.00;99.90;;;7.82;95.18;99644.84;5056238;28;20028;-76
2022/02/15 02:57:41;;;;;;;9.50;5.75;;;6.90;99.90;;;7.82;95.30;99644.84;5073872;28;20426;-77
2022/02/15 03:00:14;;;;;;;9.40;5.13;;;6.90;99.90;;;7.84;95.35;99636.94;5074722;28;20043;-75
2022/02/15 03:02:40;;;;;;;10.95;5.60;;;7.00;99.90;;;7.86;95.42;99637.38;5074493;28;20028;-76
2022/02/15 03:05:09;;;;;;;15.77;5.70;;;7.00;99.90;;;7.87;94.98;99644.53;5075273;28;20020;-77
2022/02/15 03:07:35;;;;;;;11.63;6.07;;;7.00;99.90;;;7.82;95.48;99644.84;5073986;28;20108;-77
2022/02/15 03:10:05;;;;;;;15.43;6.20;;;7.00;99.90;;;7.81;95.90;99645.19;5056273;28;20569;-76
2022/02/15 03:12:31;;;;;;;11.30;6.25;;;6.90;99.90;;;7.82;95.96;99644.84;5072529;28;20078;-75
2022/02/15 03:14:57;;;;;;;13.48;6.20;;;6.90;99.90;;;7.77;96.13;99647.88;5076386;28;20025;-76
2022/02/15 03:17:22;;;;;;;16.60;6.20;;;6.90;99.90;;;7.82;96.26;99650.41;5077713;28;20086;-78
2022/02/15 03:19:53;;;;;;;15.23;7.00;;;6.90;99.90;;;7.83;95.58;99649.22;5075142;28;20056;-77
2022/02/15 03:22:19;;;;;;;14.77;7.35;;;6.90;99.90;;;7.81;96.08;99659.09;5059700;28;20031;-76
2022/02/15 03:24:46;;;;;;;18.00;6.85;;;6.90;99.90;;;7.82;96.05;99661.50;5077318;28;20280;-78
2022/02/15 03:27:14;;;;;;;15.18;6.55;;;6.90;99.90;;;7.88;95.95;99667.59;5077483;28;20033;-77
2022/02/15 03:29:43;;;;;;;17.88;6.70;;;6.90;99.90;;;7.90;95.60;99668.81;5059471;28;20025;-76
2022/02/15 03:32:09;;;;;;;19.33;7.20;;;6.90;99.90;;;7.93;95.46;99673.66;5076826;28;20251;-77
2022/02/15 03:34:36;;;;;;;13.10;6.53;;;6.90;99.90;;;7.87;95.30;99668.75;5058677;28;20067;-78
2022/02/15 03:37:05;;;;;;;17.48;7.65;;;6.90;99.90;;;7.84;95.56;99681.41;5059096;28;20048;-76
2022/02/15 03:39:31;;;;;;;14.32;7.05;;;7.00;99.90;;;8.02;94.23;99681.00;5075124;28;20119;-76
2022/02/15 03:44:49;;;;;;;15.07;7.78;;;7.00;99.90;;;7.76;95.15;99689.97;5076668;28;20030;-76
2022/02/15 03:47:18;;;;;;;14.70;8.48;;;6.90;99.90;;;7.84;94.94;99694.50;5075833;28;20033;-77
2022/02/15 03:49:44;;;;;;;16.52;8.63;;;6.90;99.90;;;7.75;95.60;99693.91;5066676;28;20033;-76
2022/02/15 03:52:16;;;;;;;14.40;8.80;;;6.90;99.90;;;7.76;95.99;99699.09;5038436;28;20036;-76
2022/02/15 03:54:42;;;;;;;18.58;9.32;;;6.90;99.90;;;7.79;95.66;99703.94;5055812;28;20488;-74
2022/02/15 03:57:11;;;;;;;20.67;9.35;;;6.90;99.90;;;7.86;94.96;99708.84;5038717;28;20048;-78
2022/02/15 03:59:37;;;;;;;18.42;9.30;;;6.90;99.90;;;7.78;94.98;99713.44;5056401;28;20032;-77
2022/02/15 04:02:03;;;;;;;14.35;8.45;;;6.80;99.90;;;7.73;95.72;99713.72;5057843;28;20112;-76
2022/02/15 04:04:29;;;;;;;17.88;8.90;;;6.80;99.90;;;7.73;96.16;99718.47;5057752;28;20021;-76
2022/02/15 04:06:54;;;;;;;17.73;9.50;;;6.80;99.90;;;7.68;96.46;99724.28;5058452;28;20091;-76
2022/02/15 04:09:20;;;;;;;20.10;9.98;;;6.80;99.90;;;7.62;97.05;99729.34;5039320;28;20024;-75
2022/02/15 04:11:46;;;;;;;19.42;9.65;;;6.70;99.90;;;7.60;96.92;99733.66;5055158;28;20025;-76
2022/02/15 04:14:12;;;;;;;16.48;9.55;;;6.70;99.90;;;7.59;97.27;99738.38;5038783;28;20033;-76
2022/02/15 04:16:38;;;;;;;13.52;8.63;;;6.70;99.90;;;7.56;97.65;99730.78;5056924;28;20090;-78
2022/02/15 04:19:05;;;;;;;16.75;9.00;;;6.60;99.90;;;7.55;97.65;99734.72;5056672;28;20029;-75
2022/02/15 04:21:31;;;;;;;16.23;8.23;;;6.60;99.90;;;7.49;98.14;99738.94;5057239;28;20025;-76
2022/02/15 04:24:03;;;;;;;17.67;9.20;;;6.60;99.90;;;7.41;98.96;99751.06;5038811;28;20039;-76
2022/02/15 04:26:33;;;;;;;21.77;9.48;;;6.60;99.90;;;7.46;98.76;99742.44;5054340;28;20029;-74
2022/02/15 04:28:58;;;;;;;21.05;9.25;;;6.60;99.90;;;7.50;98.89;99750.84;5055385;28;20132;-77
2022/02/15 04:31:24;;;;;;;15.60;8.80;;;6.60;99.90;;;7.51;98.62;99750.50;5056870;28;20064;-76
2022/02/15 04:33:53;;;;;;;17.40;8.88;;;6.60;99.90;;;7.43;99.48;99755.06;5038507;28;20030;-77
2022/02/15 04:36:19;;;;;;;18.42;9.30;;;6.60;99.90;;;7.45;99.40;99751.16;5038074;28;20025;-78
2022/02/15 04:38:45;;;;;;;20.98;9.02;;;6.50;99.90;;;7.45;99.34;99756.69;5056847;28;20029;-77
2022/02/15 04:41:11;;;;;;;19.88;9.82;;;6.50;99.90;;;7.40;100.00;99763.31;5055894;28;20021;-77
2022/02/15 04:43:37;;;;;;;19.60;11.02;;;6.50;99.90;;;7.44;100.00;99764.22;5037388;28;20033;-76
2022/02/15 04:46:02;;;;;;;22.30;10.05;;;6.50;99.90;;;7.38;100.00;99768.44;5055882;28;20040;-79
2022/02/15 04:48:28;;;;;;;23.13;10.80;;;6.50;99.90;;;7.36;100.00;99771.56;5037694;28;20128;-76
2022/02/15 04:50:57;;;;;;;16.52;10.27;;;6.50;99.90;;;7.42;100.00;99769.31;5075187;28;20031;-77
2022/02/15 04:53:23;;;;;;;18.13;9.90;;;6.50;99.90;;;7.41;100.00;99762.97;5076147;28;20036;-77
2022/02/15 04:55:48;;;;;;;18.10;11.13;;;6.50;99.90;;;7.37;100.00;99764.84;5058020;28;20395;-76
2022/02/15 04:58:14;;;;;;;22.98;11.52;;;6.40;99.90;;;7.37;100.00;99770.41;5073729;28;20028;-77
2022/02/15 05:00:41;;;;;;;20.83;10.40;;;6.40;99.90;;;7.37;100.00;99775.97;5056749;28;20024;-75
2022/02/15 05:03:07;;;;;;;22.40;10.32;;;6.40;99.90;;;7.27;100.00;99772.91;5075440;28;20046;-76
2022/02/15 05:05:33;;;;;;;19.10;11.50;;;6.40;99.90;;;7.26;100.00;99776.81;5075455;28;20040;-78
2022/02/15 05:07:59;;;;;;;22.88;11.45;;;6.40;99.90;;;7.19;100.00;99785.00;5056516;28;20078;-75
2022/02/15 05:10:31;;;;;;;19.92;11.02;;;6.30;99.90;;;7.20;100.00;99789.38;5074223;28;20056;-77
2022/02/15 05:12:57;;;;;;;20.77;11.43;;;6.30;99.90;;;7.20;100.00;99792.16;5057171;28;20051;-75
2022/02/15 05:15:23;;;;;;;19.20;11.93;;;6.30;99.90;;;7.12;100.00;99791.16;5076474;28;20456;-78
2022/02/15 05:17:49;;;;;;;21.52;12.48;;;6.30;99.90;;;7.19;100.00;99801.66;5075282;28;20035;-75
2022/02/15 05:20:17;;;;;;;22.42;11.70;;;6.30;99.90;;;7.18;100.00;99806.41;5074737;28;20029;-75
2022/02/15 05:22:46;;;;;;;20.52;11.25;;;6.30;99.90;;;7.17;100.00;99804.78;5078475;28;20044;-78
2022/02/15 05:25:14;;;;;;;23.27;11.73;;;6.20;99.90;;;7.17;100.00;99806.75;5080620;28;20107;-78
2022/02/15 05:27:41;;;;;;;17.77;11.73;;;6.20;99.90;;;7.17;100.00;99813.09;5060440;28;20081;-77
2022/02/15 05:30:08;;;;;;;23.25;13.23;;;6.20;99.90;;;7.11;100.00;99817.31;5074160;28;20395;-77
2022/02/15 05:32:34;;;;;;;19.73;11.90;;;6.20;99.90;;;7.07;100.00;99819.19;5075101;28;20025;-75
2022/02/15 05:35:00;;;;;;;25.92;12.65;;;6.20;99.90;;;7.11;100.00;99828.41;5073409;28;20024;-77
2022/02/15 05:37:28;;;;;;;29.70;12.60;;;6.20;99.90;;;7.13;100.00;99828.84;5074651;28;20073;-78
2022/02/15 05:39:54;;;;;;;22.35;13.20;;;6.20;99.90;;;7.13;100.00;99828.03;5057625;28;20028;-77
2022/02/15 05:42:21;;;;;;;21.90;12.48;;;6.20;99.90;;;7.16;100.00;99821.81;5056889;28;20047;-77
2022/02/15 05:44:47;;;;;;;25.30;11.95;;;6.20;99.90;;;7.16;100.00;99832.91;5074743;28;20044;-75
2022/02/15 05:47:12;;;;;;;27.17;13.20;;;6.20;99.90;;;7.18;100.00;99830.59;5074310;28;20457;-77
2022/02/15 05:52:23;;;;;;;19.52;12.18;;;6.30;99.90;;;7.15;100.00;99837.66;5057906;28;20036;-76
2022/02/15 05:54:49;;;;;;;23.35;12.20;;;6.20;99.90;;;7.16;100.00;99838.47;5057745;28;20400;-77
2022/02/15 05:57:15;;;;;;;25.00;11.45;;;6.30;99.90;;;7.13;100.00;99834.41;5056630;28;20033;-78
2022/02/15 05:59:41;;;;;;;25.40;13.52;;;6.20;99.90;;;7.15;100.00;99832.09;5054388;28;20021;-78
2022/02/15 06:02:11;;;;;;;27.42;12.95;;;6.20;99.90;;;7.18;100.00;99827.81;5039448;28;20029;-77
2022/02/15 06:04:37;;;;;;;26.23;12.63;;;6.20;99.90;;;7.20;100.00;99834.59;5058750;28;20108;-76
2022/02/15 06:07:05;;;;;;;22.02;11.55;;;6.30;99.90;;;7.19;100.00;99837.75;5054483;28;20036;-76
2022/02/15 06:09:34;;;;;;;24.58;11.68;;;6.30;99.90;;;7.14;100.00;99824.94;5053702;28;20094;-77
2022/02/15 06:12:00;;;;;;;19.85;11.43;;;6.20;99.90;;;7.20;100.00;99839.34;5055393;28;20029;-78
2022/02/15 06:14:25;;;;;;;17.70;10.75;;;6.20;99.90;;;7.19;100.00;99844.09;5055763;28;20455;-77
2022/02/15 06:16:54;;;;;;;20.40;11.25;;;6.20;99.90;;;7.18;100.00;99836.94;5038843;28;20083;-78
2022/02/15 06:19:20;;;;;;;26.02;13.13;;;6.20;99.90;;;7.15;100.00;99834.06;5060905;28;20036;-76
2022/02/15 06:21:48;;;;;;;22.02;11.30;;;6.20;99.90;;;7.38;100.00;99837.88;5060847;28;20033;-76
2022/02/15 06:24:17;;;;;;;21.08;10.93;;;6.20;99.90;;;7.52;100.00;99843.81;5041373;28;20037;-79
2022/02/15 06:26:44;;;;;;;22.35;11.75;;;6.20;99.90;;;7.54;100.00;99843.47;5054294;28;20035;-76
2022/02/15 06:29:16;;;;;;;22.02;11.18;;;6.20;99.90;;;7.62;100.00;99859.94;5053575;28;20033;-76
2022/02/15 06:31:48;;;;;;;18.58;11.05;;;6.10;99.90;;;7.61;100.00;99861.09;5054206;28;20119;-77
2022/02/15 06:34:14;;;;;;;20.63;10.38;;;6.10;99.90;;;7.52;100.00;99857.69;5054600;28;20029;-77
2022/02/15 06:36:41;;;;;;;24.85;12.25;;;6.10;99.90;;;7.52;100.00;99862.44;5037435;28;20029;-77
2022/02/15 06:39:09;;;;;;;21.08;12.38;;;6.10;99.90;;;7.53;100.00;99875.97;5054407;28;20392;-75
2022/02/15 06:41:37;;;;;;;27.55;11.65;;;6.10;99.90;;;7.07;100.00;99873.91;5054514;28;20029;-75
2022/02/15 06:44:04;;;;;;;25.48;13.00;;;6.10;99.90;;;6.95;100.00;99885.06;5036660;28;20140;-77
2022/02/15 06:46:37;;;;;;;23.40;12.48;;;6.10;99.90;;;7.01;100.00;99883.63;5036465;28;20055;-77
2022/02/15 06:49:04;;;;;;;22.60;12.88;;;6.10;99.90;;;7.03;100.00;99884.91;5059025;28;20052;-76
2022/02/15 06:51:33;;;;;;;24.27;12.40;;;6.20;99.90;;;7.05;100.00;99892.88;5059910;28;20343;-76
2022/02/15 06:53:59;;;;;;;26.23;13.73;;;6.20;99.90;;;7.08;100.00;99898.53;5059812;28;20038;-75
2022/02/15 06:56:25;;;;;;;28.42;13.95;;;6.20;99.90;;;7.11;100.00;99897.84;5059399;28;20029;-76
2022/02/15 06:58:51;;;;;;;27.65;13.73;;;6.20;99.90;;;7.12;100.00;99898.66;5059726;28;20082;-75
2022/02/15 07:01:22;;;;;;;26.20;14.18;;;6.30;99.90;;;7.17;100.00;99901.16;5059876;28;20156;-77
2022/02/15 07:03:48;;;;;;;24.83;13.75;;;6.30;99.90;;;7.17;100.00;99903.94;5077058;28;20032;-76
2022/02/15 07:06:13;;;;;;;25.25;14.10;;;6.30;99.90;;;7.10;100.00;99903.72;5060105;28;20039;-76
2022/02/15 07:08:45;;;;;;;24.92;13.38;;;6.30;99.90;;;7.19;100.00;99901.63;5078547;28;20031;-76
2022/02/15 07:11:14;;;;;;;23.90;13.15;;;6.30;99.90;;;7.19;100.00;99910.75;5080591;28;20033;-76
2022/02/15 07:13:40;;;;;;;26.27;13.10;;;6.30;99.90;;;7.12;100.00;99910.56;5077649;28;20115;-73
2022/02/15 07:16:06;;;;;;;23.63;13.60;;;6.30;99.90;;;7.15;100.00;99909.88;5079080;28;20029;-77
2022/02/15 07:18:37;;;;;;;25.58;13.68;;;6.30;99.90;;;7.23;100.00;99916.41;5078437;28;20024;-77
2022/02/15 07:21:06;;;;;;;21.55;12.38;;;6.40;99.90;;;7.28;100.00;99924.50;5078197;28;20029;-76
2022/02/15 07:23:32;;;;;;;25.05;13.98;;;6.40;99.90;;;7.25;100.00;99919.66;5059854;28;20021;-75
2022/02/15 07:25:58;;;;;;;21.25;12.65;;;6.40;99.90;;;7.35;100.00;99921.94;5060018;28;20343;-75
2022/02/15 07:28:24;;;;;;;21.15;13.25;;;6.40;99.90;;;7.35;100.00;99919.16;5059063;28;20021;-77
2022/02/15 07:30:55;;;;;;;18.70;11.32;;;6.40;99.90;;;7.40;100.00;99930.00;5059338;28;20029;-75
2022/02/15 07:33:21;;;;;;;21.83;11.90;;;6.40;99.90;;;7.17;100.00;99920.59;5078514;28;20052;-77
2022/02/15 07:35:48;;;;;;;24.75;12.27;;;6.40;99.90;;;7.37;100.00;99927.94;5076434;28;20346;-75
2022/02/15 07:38:23;;;;;;;19.00;10.27;;;6.50;99.90;;;7.39;100.00;99931.97;5059642;28;20340;-77
2022/02/15 07:40:49;;;;;;;19.40;10.02;;;6.50;99.90;;;7.45;100.00;99940.84;5077921;28;20025;-74
2022/02/15 07:43:15;;;;;;;17.10;9.48;;;6.50;99.90;;;7.52;100.00;99941.06;5077295;28;20078;-76
2022/02/15 07:45:41;;;;;;;18.45;9.23;;;6.60;99.90;;;7.53;100.00;99944.63;5078725;28;20048;-76
2022/02/15 07:48:08;;;;;;;19.08;9.15;;;6.60;99.90;;;7.50;100.00;99937.81;5078605;28;20024;-75
2022/02/15 07:50:34;;;;;;;14.13;7.68;;;6.60;99.90;;;7.51;100.00;99946.97;5045145;28;20032;-76
2022/02/15 07:53:08;;;;;;;16.95;9.13;;;6.60;99.90;;;7.46;100.00;99938.88;5040746;28;20024;-76
2022/02/15 07:55:37;;;;;;;14.45;7.78;;;6.60;99.90;;;7.48;100.00;99956.81;5039849;28;20029;-77
2022/02/15 07:58:06;;;;;;;15.60;9.18;;;6.60;99.90;;;7.51;100.00;99958.09;5056216;28;20495;-76
2022/02/15 08:00:35;;;;;;;13.00;8.15;;;6.60;99.90;;;7.48;100.00;99967.13;5055235;28;20040;-78
2022/02/15 08:03:01;;;;;;;14.40;8.75;;;6.70;99.90;;;7.53;100.00;99964.09;5056261;28;20040;-75
2022/02/15 08:05:28;;;;;;;13.45;8.60;;;6.70;99.90;;;7.55;100.00;99970.09;5055308;28;20227;-75
2022/02/15 08:07:58;;;;;;;15.60;8.60;;;6.70;99.90;;;7.45;100.00;99970.63;5060041;28;20025;-77
2022/02/15 08:10:26;;;;;;;17.90;10.15;;;6.70;99.90;;;7.56;100.00;99971.72;5056379;28;20033;-75
2022/02/15 08:12:58;;;;;;;15.70;9.27;;;6.70;99.90;;;7.57;100.00;99976.94;5056529;28;20108;-76
2022/02/15 08:15:30;;;;;;;17.48;9.63;;;6.70;99.90;;;7.68;100.00;99975.25;5038726;28;20017;-74
2022/02/15 08:17:58;;;;;;;15.00;8.90;;;6.70;99.90;;;7.66;100.00;99966.47;5057261;28;20483;-75
2022/02/15 08:20:24;;;;;;;18.67;9.98;;;6.80;99.90;;;7.63;100.00;99975.50;5054921;28;20454;-77
2022/02/15 08:22:51;;;;;;;18.25;11.13;;;6.80;99.90;;;7.59;100.00;99973.78;5038857;28;20025;-76
2022/02/15 08:25:21;;;;;;;18.10;11.02;;;6.80;99.90;;;7.64;100.00;99979.88;5057166;28;20021;-76
2022/02/15 08:27:47;;;;;;;19.55;11.68;;;6.80;99.90;;;7.67;100.00;99983.97;5056900;28;20128;-76
2022/02/15 08:30:16;;;;;;;22.13;12.95;;;6.80;99.90;;;7.69;100.00;99989.97;5056544;28;20032;-76
2022/02/15 08:32:43;;;;;;;21.08;11.85;;;6.80;99.90;;;7.68;100.00;99994.69;5039761;28;20064;-74
2022/02/15 08:35:14;;;;;;;25.08;12.70;;;6.80;99.90;;;7.73;100.00;99999.22;5057261;28;20029;-78
2022/02/15 08:37:40;;;;;;;21.20;13.50;;;6.80;99.90;;;7.71;100.00;100005.09;5057909;28;20087;-75
2022/02/15 08:40:08;;;;;;;25.52;14.82;;;6.80;99.90;;;7.75;100.00;100011.59;5057217;28;20029;-77
2022/02/15 08:42:34;;;;;;;24.00;14.02;;;6.90;99.90;;;7.81;100.00;100014.91;5057901;28;20055;-77
2022/02/15 08:44:59;;;;;;;22.95;14.57;;;6.90;99.90;;;7.80;100.00;100013.31;5039803;28;20089;-77
2022/02/15 08:47:28;;;;;;;24.83;14.77;;;6.90;99.90;;;7.85;100.00;100013.84;5039619;28;20032;-76
2022/02/15 08:49:55;;;;;;;23.05;14.85;;;7.00;99.90;;;8.00;100.00;100011.44;5055755;28;20067;-76
2022/02/15 08:52:23;;;;;;;27.38;15.15;;;7.00;99.90;;;8.01;100.00;100018.63;5065714;28;20044;-77
2022/02/15 08:54:59;;;;;;;28.58;16.00;;;7.10;99.90;;;8.08;100.00;100016.84;5060133;28;20035;-77
2022/02/15 08:57:31;;;;;;;22.20;13.98;;;7.10;99.90;;;8.21;100.00;100012.03;5076988;28;20048;-76
2022/02/15 08:59:57;;;;;;;24.50;15.52;;;7.20;99.90;;;8.14;100.00;100011.84;5075169;28;20519;-77
2022/02/15 09:02:25;;;;;;;27.88;14.98;;;7.20;99.90;;;8.12;100.00;100011.41;5059134;28;20056;-77
2022/02/15 09:04:52;;;;;;;28.42;15.98;;;7.20;99.90;;;8.23;99.50;100004.13;5058700;28;20044;-79
2022/02/15 09:07:20;;;;;;;26.58;15.85;;;7.20;99.90;;;8.33;99.39;100009.19;5058949;28;20251;-75
2022/02/15 09:09:46;;;;;;;27.75;15.77;;;7.30;99.90;;;8.44;99.28;100007.50;5058801;28;20032;-76
2022/02/15 09:12:12;;;;;;;25.52;15.65;;;7.30;99.90;;;8.40;98.26;100021.31;5058926;28;20480;-78
2022/02/15 09:14:44;;;;;;;25.65;15.68;;;7.50;99.90;;;8.53;97.65;100022.03;5076934;28;20029;-76
2022/02/15 09:17:09;;;;;;;26.52;15.90;;;7.50;99.90;;;8.59;96.21;100017.81;5076142;28;20039;-76
2022/02/15 09:19:44;;;;;;;22.27;14.25;;;7.60;99.90;;;8.65;96.36;100023.91;5076262;28;20387;-77
2022/02/15 09:22:10;;;;;;;23.38;14.63;;;7.60;99.90;;;8.62;94.47;100019.06;5058407;28;20025;-75
2022/02/15 09:24:36;;;;;;;25.05;14.50;;;7.70;99.90;;;8.56;94.63;100015.75;5075753;28;20028;-77
2022/02/15 09:27:03;;;;;;;22.33;14.98;;;7.70;99.90;;;8.68;93.86;100021.22;5076289;28;20132;-78
2022/02/15 09:29:29;;;;;;;24.05;13.05;;;7.70;99.90;;;8.68;93.14;100025.97;5076286;28;20052;-77
2022/02/15 09:31:58;;;;;;;20.38;12.50;;;7.70;99.90;;;8.71;93.07;100028.84;5077293;28;20421;-80
2022/02/15 09:34:24;;;;;;;20.70;12.07;;;7.80;99.90;;;8.53;92.68;100024.00;5087513;28;20073;-75
2022/02/15 09:36:53;;;;;;;18.90;11.40;;;7.80;99.90;;;8.62;92.42;100032.97;5096052;28;20048;-73
2022/02/15 09:39:19;;;;;;;21.50;13.13;;;7.80;99.90;;;8.64;92.76;100037.00;5096470;28;20035;-75
2022/02/15 09:41:47;;;;;;;20.77;11.38;;;7.80;99.90;;;8.81;91.65;100041.41;5087883;28;20043;-78
2022/02/15 09:44:16;;;;;;;18.25;10.90;;;7.90;99.90;;;9.00;88.84;100042.28;5082019;28;20017;-79
2022/02/15 09:46:44;;;;;;;15.50;10.65;;;8.00;99.90;;;8.97;89.20;100044.97;5063691;28;20082;-79
2022/02/15 09:49:48;;;;;;;18.52;10.88;;;8.00;99.90;;;8.94;89.59;100048.50;5055052;28;20017;-78
2022/02/15 09:51:59;;;;;;;16.65;9.50;;;8.00;99.90;;;9.03;88.96;100057.44;5058313;28;20526;-75
2022/02/15 09:54:28;;;;;;;21.42;10.93;;;8.10;99.90;;;9.14;88.36;100060.50;5055413;28;20568;-74
2022/02/15 09:56:54;;;;;;;17.00;10.73;;;8.10;99.90;;;8.90;88.08;100062.31;5055386;28;20135;-76
2022/02/15 09:59:20;;;;;;;17.15;11.07;;;8.10;99.90;;;8.87;88.85;100059.44;5038829;28;20033;-76
2022/02/15 10:01:47;;;;;;;15.77;10.98;;;8.00;99.90;;;9.07;87.30;100060.31;5054923;28;20033;-75
2022/02/15 10:04:13;;;;;;;25.98;11.15;;;8.10;99.90;;;9.02;86.99;100048.28;5037340;28;20029;-75
2022/02/15 10:06:42;;;;;;;17.00;10.43;;;8.10;99.90;;;9.08;86.97;100059.97;5055743;28;20115;-77
2022/02/15 10:09:08;;;;;;;16.63;10.18;;;8.10;99.90;;;8.88;86.81;100056.31;5038515;28;20038;-75
2022/02/15 10:11:40;;;;;;;16.83;10.43;;;8.10;99.90;;;9.12;86.75;100068.41;5057258;28;20028;-77
2022/02/15 10:14:09;;;;;;;18.75;11.32;;;8.10;99.90;;;9.24;87.78;100065.50;5038596;28;20025;-77
2022/02/15 10:16:51;;;;;;;19.05;10.90;;;8.20;99.90;;;8.82;89.60;100066.13;5056776;28;20021;-78
2022/02/15 10:19:28;;;;;;;18.63;10.88;;;8.00;99.90;;;8.78;90.79;100064.41;5055108;28;20288;-77
2022/02/15 10:22:01;;;;;;;19.52;11.07;;;7.90;99.90;;;8.60;90.30;100068.72;5054718;28;20025;-76
2022/02/15 10:24:31;;;;;;;14.63;10.70;;;7.80;99.90;;;8.61;89.89;100067.53;5095024;23;20407;-82
2022/02/15 10:27:08;;;;;;;17.15;10.98;;;7.80;99.90;;;8.59;91.17;100067.09;5061092;28;20123;-81
2022/02/15 10:29:40;;;;;;;21.35;11.25;;;7.70;99.90;;;8.55;91.85;100075.34;5060826;28;20448;-83
2022/02/15 10:32:17;;;;;;;15.88;11.75;;;7.70;99.90;;;8.54;92.39;100079.28;5059551;28;20108;-83
2022/02/15 10:34:53;;;;;;;17.77;12.18;;;7.70;99.90;;;8.60;92.26;100077.88;5060380;28;20059;-84